XJD weather

Al Udeid Air Base
Ar Rayyan, Ar Rayyan Municipality, Qatar

Public forecast

Using degrees Celsius for public forecast. Weather courtesy of forecast.io.

METAR (pilot weather report)

Closest report is Doha International Airport, 16.1 nm (29.8 km) ENE. Retrieved 2019/06/24 21:30 UTC (23 minutes ago):

OTBD 242130Z AUTO 29007KT 250V310 CAVOK 38/11 Q0999 NOSIG

TAF (pilot weather forecast)

Retrieved 2019/06/24 16:06 UTC (6 hours ago):

TAF TAF OTBH 241600Z 2416/2522 31009KT 9000 HZ FEW150 QNH2952INS BECMG 2506/2507 29012G18KT 9000 HZ SKC QNH2957INS TEMPO 2509/2515 34015G25KT 6000 HZ BECMG 2520/2521 33009KT 9000 HZ SKC QNH2952INS TX46/2512Z TN29/2502Z